Hlavní strana
METAR-TAF:

METAR-TAF

Letiště :

Loja, Ekvádor

zeměpisná šířka: 03-59-45S, zeměpisná délka: 079-22-19W, výška: 1236 m

Aktuální stav počasí

Zpráva byla vytvořena před 9 hodinami a 29 minutami, v 23:00 UTC
Severní vítr 12 kt
Teplota 24°C
Vlhkost vzduchu 57%
Tlak 1018 hPa
Viditelnost 10 km a více
Skoro jasno ve výšce 4000 ft
Polojasno ve výšce 9000 ft

METAR: SECA 282300Z 35012KT 9999 FEW040 SCT090 24/15 Q1018

Čas: 03:29 (08:29 UTC)


TAF: chybějící

Stav a předpovědi počasí z více než 4 000 letišť (zprávy METAR a TAF).

Červené a žluté tečky na mapě představují dostupné meteorologické stanice.

Když kurzor umístíte na tečku, zobrazí se název stanice.

Pak kliknutím zobrazíte stav a předpověď počasí.

Chcete-li změnit mapu, kliknutím na zelené tlačítko se znaménkem +mapu přiblížíte, kliknutím na zelené tlačítko se znaménkem – mapu oddálíte a kliknutím na zelené šipky přejdete na sousední mapy.


METAR-TAF: